Time;durP1;ratioP1;P1;durP2;ratioP2;P2;SDS_P1;SDS_P2;PMS_P1;PMS_P2;Temp;Humidity;BMP_temperature;BMP_pressure;BME280_temperature;BME280_humidity;BME280_pressure;Samples;Min_cycle;Max_cycle;Signal;HPM_P1;HPM_P2
2021/11/18 00:01:27;;;;;;;21.92;6.47;;;6.10;99.90;;;;;;5037553;28;20029;-77
2021/11/18 00:04:07;;;;;;;13.98;6.00;;;6.10;99.90;;;;;;5038531;28;20033;-77
2021/11/18 00:06:33;;;;;;;14.63;5.60;;;6.10;99.90;;;;;;5034498;28;20040;-79
2021/11/18 00:09:00;;;;;;;17.77;5.75;;;6.10;99.90;;;;;;5038207;28;20028;-77
2021/11/18 00:11:26;;;;;;;17.08;6.38;;;6.00;99.90;;;;;;5023816;28;20484;-77
2021/11/18 00:13:55;;;;;;;20.70;7.20;;;6.00;99.90;;;;;;5040945;28;20037;-77
2021/11/18 00:16:22;;;;;;;17.55;7.13;;;6.00;99.90;;;;;;5020762;28;20396;-77
2021/11/18 00:18:49;;;;;;;15.55;6.18;;;6.00;99.90;;;;;;5035175;28;20041;-77
2021/11/18 00:21:25;;;;;;;15.23;5.10;;;5.90;99.90;;;;;;5033541;28;20033;-77
2021/11/18 00:23:55;;;;;;;15.85;5.85;;;5.90;99.90;;;;;;5037659;28;20048;-77
2021/11/18 00:26:24;;;;;;;14.50;5.85;;;5.90;99.90;;;;;;5020269;28;20044;-77
2021/11/18 00:28:51;;;;;;;14.35;6.75;;;5.90;99.90;;;;;;5017696;28;20052;-77
2021/11/18 00:31:24;;;;;;;16.90;6.88;;;5.90;99.90;;;;;;5032527;28;20032;-77
2021/11/18 00:33:51;;;;;;;17.58;6.68;;;5.90;99.90;;;;;;5036983;28;20041;-77
2021/11/18 00:36:18;;;;;;;16.60;6.97;;;5.90;99.90;;;;;;5021205;28;20045;-77
2021/11/18 00:38:45;;;;;;;17.05;7.05;;;5.90;99.90;;;;;;5036058;28;20037;-80
2021/11/18 00:41:13;;;;;;;14.05;4.97;;;5.90;99.90;;;;;;5001894;28;20045;-80
2021/11/18 00:43:40;;;;;;;15.18;7.65;;;5.80;99.90;;;;;;5018102;28;20029;-80
2021/11/18 00:46:09;;;;;;;17.48;6.32;;;5.80;99.90;;;;;;5036179;28;20500;-80
2021/11/18 00:48:36;;;;;;;17.33;6.05;;;5.80;99.90;;;;;;5029332;28;20117;-80
2021/11/18 00:51:06;;;;;;;17.35;6.55;;;5.80;99.90;;;;;;5033980;28;20029;-77
2021/11/18 00:53:45;;;;;;;18.30;6.10;;;5.80;99.90;;;;;;5000859;28;20499;-78
2021/11/18 00:56:21;;;;;;;11.50;4.90;;;5.70;99.90;;;;;;5032636;28;20033;-77
2021/11/18 00:58:49;;;;;;;14.15;5.85;;;5.80;99.90;;;;;;5035265;28;20021;-77
2021/11/18 01:01:16;;;;;;;20.80;6.25;;;5.70;99.90;;;;;;5033476;28;20388;-80
2021/11/18 01:03:43;;;;;;;15.63;5.22;;;5.70;99.90;;;;;;5037912;28;20032;-81
2021/11/18 01:06:09;;;;;;;15.18;5.97;;;5.70;99.90;;;;;;5019926;28;20383;-80
2021/11/18 01:08:36;;;;;;;12.15;5.53;;;5.70;99.90;;;;;;5021148;28;20503;-81
2021/11/18 01:11:09;;;;;;;23.58;6.75;;;5.70;99.90;;;;;;5033325;28;20040;-81
2021/11/18 01:13:38;;;;;;;14.18;5.90;;;5.70;99.90;;;;;;5034468;28;20025;-81
2021/11/18 01:16:09;;;;;;;20.80;6.90;;;5.70;99.90;;;;;;5016289;28;20041;-82
2021/11/18 01:18:36;;;;;;;18.02;6.63;;;5.70;99.90;;;;;;5033332;28;20052;-82
2021/11/18 01:21:05;;;;;;;15.40;5.93;;;5.70;99.90;;;;;;5036896;28;20036;-82
2021/11/18 01:23:36;;;;;;;16.30;5.80;;;5.70;99.90;;;;;;5001252;28;20042;-82
2021/11/18 01:26:06;;;;;;;17.35;6.50;;;5.70;99.90;;;;;;5032151;28;20405;-82
2021/11/18 01:28:34;;;;;;;21.80;7.35;;;5.60;99.90;;;;;;5014932;28;20392;-82
2021/11/18 01:31:03;;;;;;;19.73;6.35;;;5.70;99.90;;;;;;5032360;28;20338;-82
2021/11/18 01:33:30;;;;;;;17.42;7.57;;;5.70;99.90;;;;;;5019301;28;20029;-81
2021/11/18 01:35:56;;;;;;;18.05;6.97;;;5.70;99.90;;;;;;5018489;28;20488;-81
2021/11/18 01:38:25;;;;;;;20.90;7.38;;;5.70;99.90;;;;;;4999635;28;20029;-81
2021/11/18 01:41:07;;;;;;;21.73;6.80;;;5.70;99.90;;;;;;5037503;28;20038;-82
2021/11/18 01:43:46;;;;;;;22.63;7.05;;;5.70;99.90;;;;;;5020834;28;20025;-81
2021/11/18 01:46:19;;;;;;;23.50;8.15;;;5.70;99.90;;;;;;5039123;28;20025;-82
2021/11/18 01:48:48;;;;;;;14.80;6.60;;;5.60;99.90;;;;;;5016354;28;20038;-82
2021/11/18 01:51:17;;;;;;;15.20;6.70;;;5.70;99.90;;;;;;5018394;28;20024;-82
2021/11/18 01:53:46;;;;;;;11.88;5.78;;;5.70;99.90;;;;;;5001327;28;20030;-82
2021/11/18 01:56:23;;;;;;;16.95;5.53;;;5.60;99.90;;;;;;5035407;28;20043;-82
2021/11/18 01:58:57;;;;;;;17.00;5.25;;;5.60;99.90;;;;;;5032921;28;20041;-78
2021/11/18 02:01:36;;;;;;;17.70;7.10;;;5.60;99.90;;;;;;5029537;28;20038;-78
2021/11/18 02:04:13;;;;;;;16.73;8.48;;;5.60;99.90;;;;;;5013791;28;20481;-78
2021/11/18 02:07:05;;;;;;;18.70;7.35;;;5.60;99.90;;;;;;5034720;28;20025;-78
2021/11/18 02:09:39;;;;;;;20.65;7.47;;;5.60;99.90;;;;;;5021404;28;20047;-78
2021/11/18 02:12:10;;;;;;;19.63;6.72;;;5.70;99.90;;;;;;5035713;28;20091;-78
2021/11/18 02:14:38;;;;;;;18.75;7.68;;;5.60;99.90;;;;;;5018883;28;20590;-78
2021/11/18 02:17:08;;;;;;;16.27;7.43;;;5.60;99.90;;;;;;5035950;28;20021;-78
2021/11/18 02:19:38;;;;;;;13.32;5.63;;;5.60;99.90;;;;;;5036576;28;20025;-78
2021/11/18 02:22:07;;;;;;;12.07;5.70;;;5.60;99.90;;;;;;5033967;28;20055;-78
2021/11/18 02:24:42;;;;;;;15.68;6.72;;;5.60;99.90;;;;;;5035482;28;20036;-78
2021/11/18 02:27:16;;;;;;;14.43;6.53;;;5.60;99.90;;;;;;5016921;28;20049;-78
2021/11/18 02:29:50;;;;;;;16.67;7.15;;;5.60;99.90;;;;;;5018361;28;20037;-78
2021/11/18 02:32:21;;;;;;;17.65;7.38;;;5.60;99.90;;;;;;5015977;28;20048;-79
2021/11/18 02:35:20;;;;;;;13.82;5.70;;;5.50;99.90;;;;;;5021216;28;20396;-79
2021/11/18 02:37:49;;;;;;;16.10;8.10;;;5.50;99.90;;;;;;5036433;28;20033;-79
2021/11/18 02:40:17;;;;;;;18.98;8.93;;;5.50;99.90;;;;;;5000788;28;20053;-78
2021/11/18 02:42:44;;;;;;;20.65;8.27;;;5.60;99.90;;;;;;5020447;28;20048;-78
2021/11/18 02:45:16;;;;;;;21.10;9.10;;;5.50;99.90;;;;;;5036387;28;20041;-78
2021/11/18 02:47:43;;;;;;;24.55;8.68;;;5.60;99.90;;;;;;5033679;28;20025;-78
2021/11/18 02:50:13;;;;;;;21.27;8.52;;;5.60;99.90;;;;;;5021821;28;20664;-78
2021/11/18 02:52:47;;;;;;;25.42;9.48;;;5.70;99.90;;;;;;5024272;28;20392;-78
2021/11/18 02:55:21;;;;;;;15.10;7.82;;;5.70;99.90;;;;;;5040800;28;20032;-79
2021/11/18 02:57:48;;;;;;;17.58;9.07;;;5.70;99.90;;;;;;5036865;28;20477;-78
2021/11/18 03:00:20;;;;;;;24.88;11.15;;;5.80;99.90;;;;;;5022978;28;20357;-78
2021/11/18 03:02:48;;;;;;;25.00;11.50;;;5.90;99.90;;;;;;5040390;28;20038;-79
2021/11/18 03:05:18;;;;;;;23.08;11.23;;;5.90;99.90;;;;;;5039291;28;20040;-78
2021/11/18 03:07:47;;;;;;;24.33;10.90;;;6.00;99.90;;;;;;5020527;28;20392;-79
2021/11/18 03:10:17;;;;;;;35.08;12.00;;;6.00;99.90;;;;;;5042243;28;20636;-77
2021/11/18 03:12:44;;;;;;;29.85;12.10;;;6.10;99.90;;;;;;5019533;28;20033;-77
2021/11/18 03:15:13;;;;;;;26.77;10.10;;;6.20;99.90;;;;;;5025275;28;20034;-77
2021/11/18 03:17:41;;;;;;;27.27;11.02;;;6.20;99.90;;;;;;5017085;28;20040;-77
2021/11/18 03:20:20;;;;;;;23.20;11.38;;;6.20;99.90;;;;;;5024599;28;20405;-77
2021/11/18 03:22:47;;;;;;;20.17;10.07;;;6.30;99.90;;;;;;5038869;28;20044;-77
2021/11/18 03:25:16;;;;;;;27.42;11.73;;;6.30;99.90;;;;;;5040820;28;20053;-77
2021/11/18 03:27:47;;;;;;;23.77;10.63;;;6.30;99.90;;;;;;5035545;28;20052;-80
2021/11/18 03:30:22;;;;;;;29.42;11.82;;;6.40;99.90;;;;;;5040171;28;20484;-76
2021/11/18 03:32:50;;;;;;;31.35;12.13;;;6.40;99.90;;;;;;5040591;28;20029;-77
2021/11/18 03:35:19;;;;;;;29.20;11.75;;;6.40;99.90;;;;;;5045032;28;20033;-77
2021/11/18 03:37:48;;;;;;;26.15;10.50;;;6.50;99.90;;;;;;5012720;28;20040;-77
2021/11/18 03:40:16;;;;;;;22.08;10.20;;;6.50;99.90;;;;;;5044345;28;20026;-77
2021/11/18 03:42:44;;;;;;;26.73;9.75;;;6.50;99.90;;;;;;5027824;28;20030;-77
2021/11/18 03:45:18;;;;;;;30.65;11.02;;;6.50;99.90;;;;;;5056483;28;20526;-77
2021/11/18 03:47:44;;;;;;;25.65;9.98;;;6.50;99.90;;;;;;5015388;28;20493;-77
2021/11/18 03:50:12;;;;;;;24.40;8.90;;;6.60;99.90;;;;;;5044855;28;20041;-77
2021/11/18 03:52:47;;;;;;;25.23;10.13;;;6.60;99.90;;;;;;5036983;28;20548;-78
2021/11/18 03:55:16;;;;;;;15.60;8.02;;;6.60;99.90;;;;;;5040663;28;20029;-77
2021/11/18 03:57:46;;;;;;;21.37;8.10;;;6.60;99.90;;;;;;5003333;28;20037;-78
2021/11/18 04:00:25;;;;;;;17.23;7.50;;;6.70;99.90;;;;;;5037582;28;20389;-77
2021/11/18 04:02:54;;;;;;;18.90;8.93;;;6.70;99.90;;;;;;5025565;28;20033;-77
2021/11/18 04:05:30;;;;;;;23.55;10.82;;;6.70;99.90;;;;;;5023132;28;20025;-77
2021/11/18 04:07:56;;;;;;;27.00;9.98;;;6.70;99.90;;;;;;5021715;28;20401;-77
2021/11/18 04:10:27;;;;;;;23.10;9.35;;;6.70;99.90;;;;;;4990412;28;20460;-77
2021/11/18 04:12:55;;;;;;;24.45;10.45;;;6.70;99.90;;;;;;5022731;28;20039;-77
2021/11/18 04:15:24;;;;;;;19.27;9.52;;;6.70;99.90;;;;;;5041658;28;20033;-77
2021/11/18 04:17:54;;;;;;;18.70;8.65;;;6.70;99.90;;;;;;5020468;28;20032;-77
2021/11/18 04:20:24;;;;;;;23.08;8.80;;;6.70;99.90;;;;;;5019521;28;20045;-77
2021/11/18 04:22:53;;;;;;;21.67;8.60;;;6.70;99.90;;;;;;5021737;28;20033;-77
2021/11/18 04:25:24;;;;;;;22.05;8.77;;;6.70;99.90;;;;;;5019387;28;20053;-77
2021/11/18 04:27:51;;;;;;;27.02;8.90;;;6.80;99.90;;;;;;5033645;28;20036;-77
2021/11/18 04:30:23;;;;;;;24.42;8.50;;;6.80;99.90;;;;;;5003525;28;20058;-77
2021/11/18 04:33:09;;;;;;;19.15;8.65;;;6.70;99.90;;;;;;5038413;28;20033;-77
2021/11/18 04:35:36;;;;;;;12.80;7.32;;;6.80;99.90;;;;;;5037578;28;20064;-77
2021/11/18 04:38:03;;;;;;;21.23;8.30;;;6.80;99.90;;;;;;5021507;28;20037;-76
2021/11/18 04:40:32;;;;;;;18.60;7.82;;;6.80;99.90;;;;;;5023725;28;20485;-77
2021/11/18 04:43:00;;;;;;;23.67;6.93;;;6.80;99.90;;;;;;5020630;28;20515;-77
2021/11/18 04:45:26;;;;;;;25.15;9.13;;;6.80;99.90;;;;;;5041516;28;20040;-77
2021/11/18 04:47:56;;;;;;;24.65;10.23;;;6.80;99.90;;;;;;5035231;28;20033;-77
2021/11/18 04:50:24;;;;;;;22.73;8.75;;;6.80;99.90;;;;;;5006075;28;20037;-77
2021/11/18 04:52:51;;;;;;;22.77;9.77;;;6.80;99.90;;;;;;5037265;28;20404;-76
2021/11/18 04:55:24;;;;;;;23.00;9.32;;;6.80;99.90;;;;;;5036532;28;20029;-76
2021/11/18 04:57:51;;;;;;;26.10;8.88;;;6.90;99.90;;;;;;5035873;28;20037;-77
2021/11/18 05:00:25;;;;;;;25.48;9.68;;;6.90;99.90;;;;;;5037699;28;20037;-77
2021/11/18 05:02:53;;;;;;;20.70;8.55;;;6.90;99.90;;;;;;5033912;28;20036;-76
2021/11/18 05:05:24;;;;;;;25.95;10.50;;;6.90;99.90;;;;;;5040835;28;20044;-76
2021/11/18 05:07:55;;;;;;;28.15;11.93;;;6.90;99.90;;;;;;5022245;28;20037;-77
2021/11/18 05:10:23;;;;;;;27.85;9.63;;;6.90;99.90;;;;;;5019769;28;20044;-76
2021/11/18 05:12:50;;;;;;;34.10;10.70;;;6.90;99.90;;;;;;5006040;28;20029;-76
2021/11/18 05:15:22;;;;;;;26.58;9.13;;;6.90;99.90;;;;;;5036504;28;20044;-76
2021/11/18 05:17:49;;;;;;;28.42;10.20;;;6.90;99.90;;;;;;5032762;28;20060;-76
2021/11/18 05:20:18;;;;;;;25.33;10.50;;;6.90;99.90;;;;;;5035216;28;20485;-76
2021/11/18 05:22:45;;;;;;;21.67;8.52;;;6.90;99.90;;;;;;5037374;28;20047;-77
2021/11/18 05:25:18;;;;;;;22.65;10.45;;;6.90;99.90;;;;;;5034645;28;20575;-77
2021/11/18 05:27:44;;;;;;;23.65;10.27;;;6.90;99.90;;;;;;5033100;28;20472;-77
2021/11/18 05:30:12;;;;;;;28.92;11.50;;;7.00;99.90;;;;;;5036111;28;20037;-77
2021/11/18 05:32:44;;;;;;;20.42;9.13;;;7.00;99.90;;;;;;4998869;28;20045;-77
2021/11/18 05:35:28;;;;;;;26.30;8.88;;;7.00;99.90;;;;;;5016971;28;20045;-77
2021/11/18 05:37:55;;;;;;;32.50;11.15;;;7.00;99.90;;;;;;5033113;28;20059;-77
2021/11/18 05:40:22;;;;;;;27.77;10.90;;;7.00;99.90;;;;;;5035529;28;20362;-77
2021/11/18 05:42:51;;;;;;;32.70;10.50;;;7.00;99.90;;;;;;5036717;28;20538;-77
2021/11/18 05:45:22;;;;;;;30.17;12.45;;;7.10;99.90;;;;;;5001820;28;20037;-77
2021/11/18 05:48:04;;;;;;;30.95;13.18;;;7.10;99.90;;;;;;5037341;28;20504;-77
2021/11/18 05:50:30;;;;;;;28.25;10.50;;;7.10;99.90;;;;;;5021770;28;20117;-77
2021/11/18 05:52:57;;;;;;;32.45;13.38;;;7.10;99.90;;;;;;5023705;28;20346;-77
2021/11/18 05:55:27;;;;;;;30.95;13.30;;;7.10;99.90;;;;;;5016783;28;20045;-76
2021/11/18 05:57:54;;;;;;;29.40;11.18;;;7.20;99.90;;;;;;5033445;28;20048;-77
2021/11/18 06:00:27;;;;;;;32.67;11.93;;;7.20;99.90;;;;;;4983535;28;20077;-77
2021/11/18 06:02:56;;;;;;;34.55;11.40;;;7.20;99.90;;;;;;5052238;28;20041;-77
2021/11/18 06:05:25;;;;;;;26.70;10.30;;;7.20;99.90;;;;;;5038448;28;20037;-77
2021/11/18 06:07:53;;;;;;;37.22;11.27;;;7.20;99.90;;;;;;5035141;28;20040;-77
2021/11/18 06:10:25;;;;;;;28.60;12.23;;;7.20;99.90;;;;;;5037284;28;20032;-79
2021/11/18 06:12:54;;;;;;;31.75;13.15;;;7.20;99.90;;;;;;5021526;28;20515;-77
2021/11/18 06:15:47;;;;;;;37.13;13.25;;;7.20;99.90;;;;;;5033423;28;20042;-78
2021/11/18 06:18:14;;;;;;;30.30;11.63;;;7.20;99.90;;;;;;5018774;28;20698;-78
2021/11/18 06:20:42;;;;;;;35.33;12.45;;;7.20;99.90;;;;;;5021993;28;20040;-78
2021/11/18 06:23:11;;;;;;;31.80;12.52;;;7.30;99.90;;;;;;5039258;28;20029;-78
2021/11/18 06:25:38;;;;;;;36.70;13.77;;;7.20;99.90;;;;;;4988657;28;20324;-77
2021/11/18 06:28:07;;;;;;;32.47;12.13;;;7.30;99.90;;;;;;5024091;28;20045;-77
2021/11/18 06:30:38;;;;;;;44.35;14.52;;;7.20;99.90;;;;;;5016452;28;20360;-78
2021/11/18 06:33:08;;;;;;;36.22;12.88;;;7.20;99.90;;;;;;5034378;28;20412;-85
2021/11/18 06:35:36;;;;;;;36.05;14.35;;;7.30;99.90;;;;;;5037064;28;20021;-78
2021/11/18 06:38:04;;;;;;;37.13;13.45;;;7.20;99.90;;;;;;5016075;28;20036;-79
2021/11/18 06:40:31;;;;;;;37.25;13.88;;;7.30;99.90;;;;;;5029930;28;20058;-79
2021/11/18 06:42:58;;;;;;;26.17;11.80;;;7.30;99.90;;;;;;5017493;28;20041;-77
2021/11/18 06:45:36;;;;;;;35.50;12.27;;;7.30;99.90;;;;;;5039014;28;20491;-78
2021/11/18 06:48:18;;;;;;;30.85;11.88;;;7.30;99.90;;;;;;5013956;28;20032;-79
2021/11/18 06:50:52;;;;;;;38.55;14.63;;;7.30;99.90;;;;;;5006486;28;20037;-77
2021/11/18 06:53:19;;;;;;;38.90;14.05;;;7.30;99.90;;;;;;5033567;28;20048;-80
2021/11/18 06:55:46;;;;;;;35.70;14.27;;;7.30;99.90;;;;;;5036010;28;20038;-78
2021/11/18 06:58:12;;;;;;;36.58;12.93;;;7.30;99.90;;;;;;5010625;28;20045;-79
2021/11/18 07:00:39;;;;;;;35.60;12.40;;;7.30;99.90;;;;;;5015331;28;20033;-79
2021/11/18 07:03:09;;;;;;;38.10;13.85;;;7.30;99.90;;;;;;5033236;28;20052;-80
2021/11/18 07:05:37;;;;;;;38.90;14.02;;;7.30;99.90;;;;;;4997745;28;20061;-80
2021/11/18 07:08:06;;;;;;;34.38;12.85;;;7.30;99.90;;;;;;5031543;28;20046;-78
2021/11/18 07:10:34;;;;;;;31.50;12.00;;;7.30;99.90;;;;;;5034459;28;20030;-77
2021/11/18 07:13:10;;;;;;;;;;;7.30;99.90;;;;;;5035167;28;20029;-77
2021/11/18 07:15:36;;;;;;;34.65;13.02;;;7.30;99.90;;;;;;5035081;28;19909;-78
2021/11/18 07:18:08;;;;;;;32.90;11.48;;;7.30;99.90;;;;;;5034461;28;20046;-78
2021/11/18 07:20:35;;;;;;;28.95;12.18;;;7.30;99.90;;;;;;5032133;28;20040;-77
2021/11/18 07:23:03;;;;;;;36.60;13.02;;;7.30;99.90;;;;;;5038593;28;20040;-75
2021/11/18 07:25:37;;;;;;;50.40;20.35;;;7.30;99.90;;;;;;5019726;28;20535;-77
2021/11/18 07:28:04;;;;;;;51.72;20.08;;;7.40;99.90;;;;;;5016434;28;20659;-77
2021/11/18 07:30:31;;;;;;;46.63;20.88;;;7.40;99.90;;;;;;5034498;28;20048;-77
2021/11/18 07:32:58;;;;;;;41.38;16.17;;;7.40;99.90;;;;;;5036570;28;20029;-77
2021/11/18 07:35:29;;;;;;;42.45;14.32;;;7.40;99.90;;;;;;5018481;28;20045;-77
2021/11/18 07:37:57;;;;;;;34.53;13.25;;;7.40;99.90;;;;;;5018149;28;20041;-79
2021/11/18 07:40:29;;;;;;;35.65;14.23;;;7.30;99.90;;;;;;5020526;28;20037;-77
2021/11/18 07:43:04;;;;;;;39.08;13.85;;;7.30;99.90;;;;;;5020439;28;20038;-77
2021/11/18 07:46:08;;;;;;;38.45;12.90;;;7.30;99.90;;;;;;5032921;28;20037;-77
2021/11/18 07:48:35;;;;;;;37.65;14.15;;;7.30;99.90;;;;;;5037566;28;20813;-77
2021/11/18 07:51:05;;;;;;;39.42;14.88;;;7.30;99.90;;;;;;5006096;28;20473;-76
2021/11/18 07:53:33;;;;;;;38.40;13.73;;;7.20;99.90;;;;;;5005532;28;20034;-77
2021/11/18 07:56:00;;;;;;;42.35;15.10;;;7.30;99.90;;;;;;5040131;28;20037;-77
2021/11/18 07:58:27;;;;;;;46.30;15.65;;;7.20;99.90;;;;;;5019438;28;20346;-77
2021/11/18 08:00:57;;;;;;;37.45;13.68;;;7.20;99.90;;;;;;5019237;28;20045;-77
2021/11/18 08:03:31;;;;;;;55.45;17.35;;;7.20;99.90;;;;;;5038434;28;20691;-76
2021/11/18 08:06:25;;;;;;;45.28;15.02;;;7.20;99.90;;;;;;5037785;28;20041;-78
2021/11/18 08:08:58;;;;;;;45.00;15.68;;;7.20;99.90;;;;;;5010799;28;20030;-81
2021/11/18 08:11:38;;;;;;;49.42;15.20;;;7.30;99.90;;;;;;5016258;28;20044;-82
2021/11/18 08:14:06;;;;;;;48.85;16.13;;;7.30;99.90;;;;;;5018919;28;20036;-81
2021/11/18 08:16:34;;;;;;;38.78;13.90;;;7.30;99.90;;;;;;5032177;28;20632;-81
2021/11/18 08:19:04;;;;;;;43.38;14.98;;;7.30;99.90;;;;;;5015622;28;20703;-81
2021/11/18 08:21:32;;;;;;;50.92;15.60;;;7.40;99.90;;;;;;5029839;28;20033;-82
2021/11/18 08:24:00;;;;;;;44.45;16.58;;;7.40;99.90;;;;;;5031914;28;20025;-82
2021/11/18 08:26:35;;;;;;;56.57;18.80;;;7.40;99.90;;;;;;5017033;28;20049;-83
2021/11/18 08:29:11;;;;;;;42.90;16.05;;;7.40;99.90;;;;;;5018440;28;20025;-83
2021/11/18 08:31:39;;;;;;;45.17;16.63;;;7.50;99.90;;;;;;4998854;28;20033;-84
2021/11/18 08:34:27;;;;;;;40.10;13.85;;;7.50;99.90;;;;;;5034744;28;20042;-83
2021/11/18 08:36:59;;;;;;;38.80;15.32;;;7.50;99.90;;;;;;5033790;28;20033;-83
2021/11/18 08:39:27;;;;;;;44.35;13.77;;;7.50;99.90;;;;;;5015574;28;20389;-83
2021/11/18 08:42:03;;;;;;;42.15;14.65;;;7.50;99.90;;;;;;5013812;28;20032;-83
2021/11/18 08:44:34;;;;;;;49.60;15.93;;;7.50;99.90;;;;;;5031173;28;20032;-83
2021/11/18 08:47:02;;;;;;;44.70;16.35;;;7.60;99.90;;;;;;5032595;28;20033;-84
2021/11/18 08:49:31;;;;;;;37.60;16.25;;;7.60;99.90;;;;;;5033620;28;20025;-81
2021/11/18 08:52:06;;;;;;;44.47;16.55;;;7.70;99.90;;;;;;5029824;28;20033;-83
2021/11/18 08:54:39;;;;;;;40.78;14.25;;;7.70;99.90;;;;;;5013713;28;20030;-79
2021/11/18 08:57:06;;;;;;;54.33;20.05;;;7.80;99.90;;;;;;5019672;28;20025;-80
2021/11/18 08:59:52;;;;;;;37.63;16.13;;;7.80;99.90;;;;;;5030795;28;20041;-83
2021/11/18 09:02:27;;;;;;;45.20;17.40;;;7.90;99.90;;;;;;5015150;28;20056;-82
2021/11/18 09:04:54;;;;;;;53.65;17.88;;;7.90;99.90;;;;;;5035282;28;20029;-81
2021/11/18 09:07:25;;;;;;;42.90;17.55;;;8.00;99.90;;;;;;5033521;28;20033;-80
2021/11/18 09:09:51;;;;;;;46.08;15.98;;;8.00;99.90;;;;;;5030835;28;20033;-81
2021/11/18 09:12:18;;;;;;;43.53;18.13;;;8.10;99.90;;;;;;5018688;28;20055;-81
2021/11/18 09:14:46;;;;;;;44.67;16.90;;;8.10;99.90;;;;;;5017044;28;20045;-81
2021/11/18 09:17:13;;;;;;;42.58;16.80;;;8.10;99.90;;;;;;5029544;28;20519;-81
2021/11/18 09:19:51;;;;;;;53.15;17.52;;;8.20;99.90;;;;;;5033428;28;20033;-81
2021/11/18 09:22:18;;;;;;;56.85;19.38;;;8.30;99.90;;;;;;5036308;28;20051;-77
2021/11/18 09:24:52;;;;;;;41.40;15.85;;;8.30;99.90;;;;;;5021190;28;20041;-77
2021/11/18 09:27:23;;;;;;;46.85;17.88;;;8.40;99.90;;;;;;5041741;28;20033;-76
2021/11/18 09:29:51;;;;;;;47.97;18.10;;;8.40;99.90;;;;;;5050382;28;20038;-76
2021/11/18 09:32:28;;;;;;;50.20;17.47;;;8.40;99.90;;;;;;5050340;28;20045;-75
2021/11/18 09:35:07;;;;;;;64.45;19.63;;;8.60;99.90;;;;;;5043494;28;20288;-76
2021/11/18 09:37:33;;;;;;;49.97;17.08;;;8.70;99.90;;;;;;5036680;28;20037;-75
2021/11/18 09:40:01;;;;;;;50.92;17.40;;;8.80;99.90;;;;;;5043992;28;20503;-81
2021/11/18 09:42:46;;;;;;;42.25;15.93;;;8.90;99.90;;;;;;5033531;28;20051;-80
2021/11/18 09:45:18;;;;;;;45.53;16.65;;;9.00;99.90;;;;;;5019895;28;20055;-80
2021/11/18 09:48:09;;;;;;;44.30;14.45;;;9.10;99.90;;;;;;5035700;28;20029;-80
2021/11/18 09:51:10;;;;;;;37.20;14.38;;;9.30;99.90;;;;;;5019553;28;20046;-80
2021/11/18 09:53:56;;;;;;;37.70;13.13;;;9.50;99.90;;;;;;5041737;28;20041;-80
2021/11/18 09:56:26;;;;;;;36.88;12.32;;;9.70;99.90;;;;;;5031571;28;20045;-80
2021/11/18 09:59:12;;;;;;;37.80;13.50;;;9.80;99.90;;;;;;5015063;28;20468;-81
2021/11/18 10:02:05;;;;;;;35.55;12.43;;;10.10;99.90;;;;;;5031874;28;20048;-81
2021/11/18 10:04:37;;;;;;;32.22;12.45;;;10.30;99.90;;;;;;5031012;28;20037;-81
2021/11/18 10:07:20;;;;;;;30.33;11.77;;;10.50;99.90;;;;;;5030620;28;20056;-80
2021/11/18 10:10:15;;;;;;;31.48;10.35;;;10.70;99.90;;;;;;5018619;28;20487;-80
2021/11/18 10:13:03;;;;;;;29.52;10.38;;;10.90;99.90;;;;;;5015892;28;20030;-76
2021/11/18 10:15:36;;;;;;;31.05;10.10;;;11.10;99.90;;;;;;5040084;28;20353;-74
2021/11/18 10:18:20;;;;;;;35.03;13.10;;;11.40;99.90;;;;;;5016260;28;20033;-76
2021/11/18 10:20:53;;;;;;;37.25;11.27;;;11.60;99.90;;;;;;5016626;28;20037;-79
2021/11/18 10:23:24;;;;;;;30.08;9.73;;;11.80;99.90;;;;;;5039213;28;20404;-81
2021/11/18 10:26:00;;;;;;;37.53;11.27;;;11.90;99.90;;;;;;5030915;28;20038;-81
2021/11/18 10:28:33;;;;;;;29.98;9.43;;;12.10;99.90;;;;;;5028059;28;20032;-82
2021/11/18 10:31:18;;;;;;;26.77;7.95;;;12.20;99.90;;;;;;5030435;28;20034;-81
2021/11/18 10:34:03;;;;;;;31.73;10.43;;;12.30;99.90;;;;;;5033310;28;20033;-81
2021/11/18 10:37:05;;;;;;;28.17;9.75;;;12.30;99.90;;;;;;5036483;28;20152;-80
2021/11/18 10:39:44;;;;;;;32.65;11.05;;;12.20;99.90;;;;;;5031396;28;20041;-81
2021/11/18 10:42:19;;;;;;;31.00;9.65;;;12.20;99.90;;;;;;5033494;28;20033;-81
2021/11/18 10:45:07;;;;;;;29.55;9.68;;;12.10;99.90;;;;;;5030867;28;20029;-80
2021/11/18 10:47:34;;;;;;;31.92;10.43;;;12.00;99.90;;;;;;5033421;28;20029;-81
2021/11/18 10:50:25;;;;;;;27.52;9.43;;;11.80;99.90;;;;;;5034917;28;20033;-75
2021/11/18 10:53:04;;;;;;;30.77;9.93;;;11.60;99.90;;;;;;5035171;28;20037;-74
2021/11/18 10:55:40;;;;;;;30.50;9.45;;;11.40;99.90;;;;;;5036884;28;20507;-76
2021/11/18 10:58:25;;;;;;;26.88;10.23;;;11.20;99.90;;;;;;5030772;28;20040;-82
2021/11/18 11:00:56;;;;;;;38.20;9.65;;;11.10;99.90;;;;;;5037223;28;20033;-81
2021/11/18 11:03:35;;;;;;;30.50;9.05;;;11.00;99.90;;;;;;5035451;28;20029;-81
2021/11/18 11:06:23;;;;;;;31.55;10.23;;;10.90;99.90;;;;;;5021428;28;20045;-81
2021/11/18 11:08:58;;;;;;;30.70;9.95;;;10.80;99.90;;;;;;5036885;28;20392;-81
2021/11/18 11:12:01;;;;;;;29.58;8.93;;;10.80;99.90;;;;;;5034052;28;20048;-76
2021/11/18 11:14:37;;;;;;;26.90;9.52;;;10.80;99.90;;;;;;5040145;28;20033;-76
2021/11/18 11:17:25;;;;;;;35.42;10.50;;;10.80;99.90;;;;;;5039715;28;20435;-76
2021/11/18 11:20:10;;;;;;;33.08;10.63;;;10.80;99.90;;;;;;5025304;28;20045;-76
2021/11/18 11:22:49;;;;;;;33.15;11.02;;;10.90;99.90;;;;;;5041983;28;20045;-76
2021/11/18 11:25:39;;;;;;;34.33;10.07;;;10.90;99.90;;;;;;5023849;28;20033;-77
2021/11/18 11:28:27;;;;;;;26.02;9.25;;;10.90;99.90;;;;;;5036861;28;20476;-80
2021/11/18 11:31:14;;;;;;;30.95;9.20;;;10.90;99.90;;;;;;5037373;28;20017;-77
2021/11/18 11:34:04;;;;;;;31.67;9.95;;;10.90;99.90;;;;;;5041745;28;20030;-77
2021/11/18 11:36:43;;;;;;;31.15;10.70;;;10.90;99.90;;;;;;5020007;28;20369;-78
2021/11/18 11:39:15;;;;;;;33.25;9.85;;;10.90;99.90;;;;;;5041144;28;20044;-78
2021/11/18 11:42:15;;;;;;;27.95;8.60;;;10.90;99.90;;;;;;5040308;28;20389;-78
2021/11/18 11:45:23;;;;;;;31.17;8.50;;;10.90;99.90;;;;;;5025768;28;20551;-77
2021/11/18 11:48:04;;;;;;;32.38;8.90;;;10.90;99.90;;;;;;5037337;28;20041;-78
2021/11/18 11:50:41;;;;;;;27.10;6.93;;;10.90;99.90;;;;;;5018669;28;20048;-77
2021/11/18 11:53:25;;;;;;;22.85;6.38;;;10.90;99.90;;;;;;5022348;28;20036;-78
2021/11/18 11:56:01;;;;;;;27.95;7.22;;;10.90;99.90;;;;;;5039034;28;20037;-78
2021/11/18 11:58:42;;;;;;;26.73;6.72;;;10.90;99.90;;;;;;5035832;28;20029;-78
2021/11/18 12:01:15;;;;;;;28.63;7.47;;;10.90;99.90;;;;;;5024020;28;20044;-78
2021/11/18 12:04:23;;;;;;;27.25;7.80;;;10.90;99.90;;;;;;5038669;28;20029;-81
2021/11/18 12:07:25;;;;;;;22.38;7.22;;;10.90;99.90;;;;;;5029954;28;20053;-80
2021/11/18 12:10:28;;;;;;;26.42;6.97;;;10.90;99.90;;;;;;5043816;28;20038;-78
2021/11/18 12:13:22;;;;;;;27.70;6.70;;;10.90;99.90;;;;;;5038932;28;20040;-77
2021/11/18 12:15:51;;;;;;;21.98;6.60;;;10.90;99.90;;;;;;5039164;28;20034;-78
2021/11/18 12:18:26;;;;;;;29.77;6.55;;;10.90;99.90;;;;;;5043244;28;20021;-78
2021/11/18 12:20:56;;;;;;;30.33;7.60;;;10.90;99.90;;;;;;5035167;28;20033;-82
2021/11/18 12:24:02;;;;;;;27.80;7.43;;;10.90;99.90;;;;;;5024135;28;20460;-77
2021/11/18 12:26:49;;;;;;;26.17;6.20;;;10.90;99.90;;;;;;5036099;28;20033;-82
2021/11/18 12:29:25;;;;;;;18.88;6.38;;;10.90;99.90;;;;;;5034401;28;20481;-82
2021/11/18 12:32:11;;;;;;;;;;;10.90;99.90;;;;;;5014056;28;20029;-82
2021/11/18 12:35:06;;;;;;;28.88;7.72;;;10.90;99.90;;;;;;5034214;28;19916;-82
2021/11/18 12:37:46;;;;;;;22.25;7.15;;;10.90;99.90;;;;;;5017640;28;20040;-77
2021/11/18 12:40:34;;;;;;;25.95;6.22;;;10.90;99.90;;;;;;5019806;28;20429;-79
2021/11/18 12:43:38;;;;;;;19.00;5.60;;;11.00;99.90;;;;;;5036358;28;20044;-80
2021/11/18 12:46:20;;;;;;;26.30;5.95;;;11.00;99.90;;;;;;5030478;28;20044;-83
2021/11/18 12:48:52;;;;;;;26.48;6.55;;;11.00;99.90;;;;;;5032021;28;20044;-82
2021/11/18 12:51:24;;;;;;;28.27;6.40;;;11.00;99.90;;;;;;5034110;28;20022;-79
2021/11/18 12:54:26;;;;;;;20.85;5.63;;;11.00;99.90;;;;;;5031523;28;20025;-77
2021/11/18 12:57:02;;;;;;;23.57;6.10;;;11.00;99.90;;;;;;5017910;28;20055;-80
2021/11/18 12:59:46;;;;;;;27.67;6.07;;;11.00;99.90;;;;;;5016892;28;20048;-80
2021/11/18 13:02:52;;;;;;;25.10;6.53;;;11.10;99.90;;;;;;5037528;28;20452;-76
2021/11/18 13:05:19;;;;;;;23.70;5.70;;;11.10;99.90;;;;;;5039518;28;20039;-77
2021/11/18 13:07:58;;;;;;;26.38;5.20;;;11.20;99.90;;;;;;5017979;28;20028;-76
2021/11/18 13:10:29;;;;;;;28.70;6.03;;;11.30;99.90;;;;;;5038565;28;21314;-80
2021/11/18 13:13:01;;;;;;;24.13;6.20;;;11.50;99.90;;;;;;5033358;28;20029;-78
2021/11/18 13:15:42;;;;;;;27.83;7.05;;;11.50;99.90;;;;;;5037350;28;20025;-77